Terminal Aerodrome Forecast
Issued by NWS

Home | Current Version | Previous Version | Text Only | Print | Product List | Glossary On
Versions: 1 2 3 4 5 6 7 8 9 10 11 12
000
FTUS46 KHNX 282320
TAFMCE
TAF
KMCE 282320Z 2900/2924 32009KT P6SM SCT250
      TEMPO 2900/2904 32012G19KT
     FM291200 32006KT P6SM BKN250
     FM291800 32011KT P6SM BKN250=

USA.gov is the U.S. government's official web portal to all federal, state and local government web resources and services.